createdAt,value
2023-08-15T00:00:29.007Z,655.00
2023-08-15T00:01:29.013Z,657.00
2023-08-15T00:02:29.118Z,652.00
2023-08-15T00:03:29.200Z,650.00
2023-08-15T00:04:29.189Z,648.00
2023-08-15T00:05:29.310Z,653.00
2023-08-15T00:06:29.301Z,652.00
2023-08-15T00:07:29.298Z,653.00
2023-08-15T00:08:29.390Z,652.00
2023-08-15T00:09:29.447Z,654.00
2023-08-15T00:10:29.464Z,651.00
2023-08-15T00:11:29.552Z,652.00
2023-08-15T00:12:29.603Z,654.00
2023-08-15T00:13:29.602Z,656.00
2023-08-15T00:14:29.698Z,655.00
2023-08-15T00:15:29.729Z,661.00
2023-08-15T00:16:29.819Z,653.00
2023-08-15T00:17:29.888Z,660.00
2023-08-15T00:18:29.888Z,656.00
2023-08-15T00:19:29.940Z,654.00
2023-08-15T00:20:29.977Z,655.00
2023-08-15T00:21:30.028Z,657.00
2023-08-15T00:22:30.141Z,652.00
2023-08-15T00:23:30.126Z,652.00
2023-08-15T00:24:30.189Z,656.00
2023-08-15T00:25:30.236Z,658.00
2023-08-15T00:26:30.376Z,656.00
2023-08-15T00:27:30.348Z,659.00
2023-08-15T00:28:30.389Z,658.00
2023-08-15T00:29:30.444Z,657.00
2023-08-15T00:30:30.508Z,652.00
2023-08-15T00:31:30.560Z,657.00
2023-08-15T00:32:30.663Z,659.00
2023-08-15T00:33:30.669Z,657.00
2023-08-15T00:34:30.706Z,655.00
2023-08-15T00:35:30.746Z,654.00
2023-08-15T00:36:30.845Z,657.00
2023-08-15T00:37:30.873Z,655.00
2023-08-15T00:38:30.899Z,661.00
2023-08-15T00:39:30.951Z,655.00
2023-08-15T00:40:31.007Z,650.00
2023-08-15T00:41:31.075Z,652.00
2023-08-15T00:42:31.135Z,654.00
2023-08-15T00:43:31.154Z,657.00
2023-08-15T00:44:31.233Z,659.00
2023-08-15T00:45:31.283Z,657.00
2023-08-15T00:46:31.391Z,651.00
2023-08-15T00:47:31.425Z,656.00
2023-08-15T00:48:31.458Z,654.00
2023-08-15T00:49:31.520Z,650.00
2023-08-15T00:50:31.548Z,645.00
2023-08-15T00:51:31.639Z,650.00
2023-08-15T00:52:31.684Z,657.00
2023-08-15T00:53:31.784Z,650.00
2023-08-15T00:54:31.797Z,656.00
2023-08-15T00:55:31.842Z,654.00
2023-08-15T00:56:31.905Z,656.00
2023-08-15T00:57:31.966Z,655.00
2023-08-15T00:58:32.029Z,655.00
2023-08-15T00:59:32.062Z,649.00
2023-08-15T01:00:32.115Z,650.00
2023-08-15T01:01:32.218Z,653.00
2023-08-15T01:02:32.305Z,652.00
2023-08-15T01:03:32.421Z,650.00
2023-08-15T01:04:32.334Z,659.00
2023-08-15T01:05:32.412Z,656.00
2023-08-15T01:06:32.454Z,656.00
2023-08-15T01:07:32.598Z,653.00
2023-08-15T01:08:32.575Z,649.00
2023-08-15T01:09:32.685Z,651.00
2023-08-15T01:10:32.711Z,656.00
2023-08-15T01:11:32.733Z,656.00
2023-08-15T01:12:32.804Z,653.00
2023-08-15T01:13:32.939Z,652.00
2023-08-15T01:14:32.915Z,655.00
2023-08-15T01:15:32.997Z,652.00
2023-08-15T01:16:33.084Z,649.00
2023-08-15T01:17:33.173Z,651.00
2023-08-15T01:18:33.180Z,653.00
2023-08-15T01:19:33.268Z,652.00
2023-08-15T01:20:33.350Z,646.00
2023-08-15T01:21:33.397Z,649.00
2023-08-15T01:22:33.509Z,647.00
2023-08-15T01:23:33.476Z,643.00
2023-08-15T01:24:33.548Z,648.00
2023-08-15T01:25:33.591Z,647.00
2023-08-15T01:26:33.678Z,649.00
2023-08-15T01:27:33.745Z,655.00
2023-08-15T01:28:33.807Z,653.00
2023-08-15T01:29:33.857Z,651.00
2023-08-15T01:30:33.937Z,652.00
2023-08-15T01:31:34.034Z,649.00
2023-08-15T01:32:34.100Z,652.00
2023-08-15T01:33:34.175Z,656.00
2023-08-15T01:34:34.188Z,653.00
2023-08-15T01:35:34.281Z,648.00
2023-08-15T01:36:34.305Z,653.00
2023-08-15T01:37:34.361Z,654.00
2023-08-15T01:38:34.446Z,653.00
2023-08-15T01:39:34.508Z,654.00
2023-08-15T01:40:34.580Z,656.00
2023-08-15T01:41:34.590Z,653.00
2023-08-15T01:42:34.688Z,654.00
2023-08-15T01:43:34.724Z,656.00
2023-08-15T01:44:34.788Z,655.00
2023-08-15T01:45:34.878Z,657.00
2023-08-15T01:46:35.004Z,654.00
2023-08-15T01:47:35.012Z,653.00
2023-08-15T01:48:35.073Z,653.00
2023-08-15T01:49:35.103Z,655.00
2023-08-15T01:50:35.188Z,654.00
2023-08-15T01:51:35.292Z,653.00
2023-08-15T01:52:35.289Z,648.00
2023-08-15T01:53:35.384Z,648.00
2023-08-15T01:54:35.428Z,650.00
2023-08-15T01:55:35.498Z,655.00
2023-08-15T01:56:35.532Z,650.00
2023-08-15T01:57:35.607Z,649.00
2023-08-15T01:58:35.647Z,645.00
2023-08-15T01:59:35.709Z,646.00
2023-08-15T02:00:35.806Z,645.00
2023-08-15T02:01:35.892Z,651.00
2023-08-15T02:02:35.969Z,651.00
2023-08-15T02:03:35.988Z,652.00
2023-08-15T02:04:36.040Z,652.00
2023-08-15T02:05:36.364Z,653.00
2023-08-15T02:06:36.162Z,649.00
2023-08-15T02:07:36.234Z,649.00
2023-08-15T02:08:36.277Z,648.00
2023-08-15T02:09:36.340Z,653.00
2023-08-15T02:10:36.449Z,650.00
2023-08-15T02:11:36.485Z,651.00
2023-08-15T02:12:36.518Z,652.00
2023-08-15T02:13:36.594Z,647.00
2023-08-15T02:14:36.663Z,653.00
2023-08-15T02:15:36.785Z,651.00
2023-08-15T02:16:36.795Z,656.00
2023-08-15T02:17:36.812Z,655.00
2023-08-15T02:18:37.960Z,656.00
2023-08-15T02:19:36.896Z,658.00
2023-08-15T02:20:36.952Z,653.00
2023-08-15T02:21:37.019Z,649.00
2023-08-15T02:22:37.072Z,648.00
2023-08-15T02:23:37.125Z,658.00
2023-08-15T02:24:37.186Z,657.00
2023-08-15T02:25:37.223Z,659.00
2023-08-15T02:26:37.308Z,654.00
2023-08-15T02:27:37.359Z,656.00
2023-08-15T02:28:37.426Z,652.00
2023-08-15T02:29:37.463Z,651.00
2023-08-15T02:30:37.457Z,654.00
2023-08-15T02:31:37.576Z,658.00
2023-08-15T02:32:37.630Z,657.00
2023-08-15T02:33:37.617Z,648.00
2023-08-15T02:34:37.632Z,647.00
2023-08-15T02:35:37.650Z,643.00
2023-08-15T02:36:37.713Z,646.00
2023-08-15T02:37:37.710Z,654.00
2023-08-15T02:38:37.752Z,654.00
2023-08-15T02:39:37.778Z,656.00
2023-08-15T02:40:37.800Z,649.00
2023-08-15T02:41:37.787Z,648.00
2023-08-15T02:42:37.805Z,648.00
2023-08-15T02:43:37.827Z,643.00
2023-08-15T02:44:37.837Z,645.00
2023-08-15T02:45:37.831Z,648.00
2023-08-15T02:46:37.919Z,648.00
2023-08-15T02:47:37.844Z,640.00
2023-08-15T02:48:37.821Z,640.00
2023-08-15T02:49:37.842Z,649.00
2023-08-15T02:50:37.859Z,649.00
2023-08-15T02:51:37.819Z,645.00
2023-08-15T02:52:37.833Z,646.00
2023-08-15T02:53:37.828Z,651.00
2023-08-15T02:54:37.830Z,651.00
2023-08-15T02:55:37.846Z,652.00
2023-08-15T02:56:37.863Z,648.00
2023-08-15T02:57:37.880Z,643.00
2023-08-15T02:58:37.865Z,652.00
2023-08-15T02:59:37.928Z,643.00
2023-08-15T03:00:37.953Z,640.00
2023-08-15T03:01:37.942Z,647.00
2023-08-15T03:02:38.092Z,647.00
2023-08-15T03:03:37.941Z,646.00
2023-08-15T03:04:37.969Z,650.00
2023-08-15T03:05:37.956Z,644.00
2023-08-15T03:06:37.935Z,643.00
2023-08-15T03:07:37.933Z,644.00
2023-08-15T03:08:37.980Z,647.00
2023-08-15T03:09:37.967Z,645.00
2023-08-15T03:10:37.972Z,641.00
2023-08-15T03:11:38.032Z,644.00
2023-08-15T03:12:37.970Z,644.00
2023-08-15T03:13:37.984Z,649.00
2023-08-15T03:14:37.999Z,638.00
2023-08-15T03:15:38.043Z,643.00
2023-08-15T03:16:38.093Z,643.00
2023-08-15T03:17:38.282Z,639.00
2023-08-15T03:18:38.016Z,642.00
2023-08-15T03:19:38.024Z,646.00
2023-08-15T03:20:37.994Z,639.00
2023-08-15T03:21:38.021Z,640.00
2023-08-15T03:22:37.989Z,641.00
2023-08-15T03:23:37.998Z,645.00
2023-08-15T03:24:37.986Z,643.00
2023-08-15T03:25:38.000Z,651.00
2023-08-15T03:26:38.040Z,652.00
2023-08-15T03:27:37.972Z,647.00
2023-08-15T03:28:38.027Z,650.00
2023-08-15T03:29:38.012Z,646.00
2023-08-15T03:30:38.037Z,646.00
2023-08-15T03:31:38.018Z,642.00
2023-08-15T03:32:38.042Z,645.00
2023-08-15T03:33:38.017Z,642.00
2023-08-15T03:34:38.010Z,643.00
2023-08-15T03:35:38.020Z,641.00
2023-08-15T03:36:37.986Z,643.00
2023-08-15T03:37:37.978Z,643.00
2023-08-15T03:38:38.015Z,646.00
2023-08-15T03:39:37.994Z,642.00
2023-08-15T03:40:37.974Z,641.00
2023-08-15T03:41:37.998Z,646.00
2023-08-15T03:42:38.028Z,638.00
2023-08-15T03:43:37.978Z,639.00
2023-08-15T03:44:38.044Z,640.00
2023-08-15T03:45:38.029Z,637.00
2023-08-15T03:46:38.029Z,641.00
2023-08-15T03:47:38.020Z,646.00
2023-08-15T03:48:37.975Z,640.00
2023-08-15T03:49:38.067Z,646.00
2023-08-15T03:50:38.011Z,642.00
2023-08-15T03:51:46.583Z,639.00
2023-08-15T03:52:38.964Z,639.00
2023-08-15T03:53:37.957Z,640.00
2023-08-15T03:54:37.979Z,640.00
2023-08-15T03:55:37.947Z,642.00
2023-08-15T03:56:37.954Z,646.00
2023-08-15T03:57:37.936Z,642.00
2023-08-15T03:58:37.915Z,640.00
2023-08-15T03:59:37.917Z,641.00
2023-08-15T04:00:37.927Z,637.00
2023-08-15T04:01:37.928Z,638.00
2023-08-15T04:02:37.946Z,635.00
2023-08-15T04:03:37.977Z,638.00
2023-08-15T04:04:37.911Z,638.00
2023-08-15T04:05:37.923Z,642.00
2023-08-15T04:06:37.900Z,638.00
2023-08-15T04:07:37.910Z,638.00
2023-08-15T04:08:37.878Z,636.00
2023-08-15T04:09:37.865Z,634.00
2023-08-15T04:10:38.183Z,635.00
2023-08-15T04:11:37.882Z,631.00
2023-08-15T04:12:37.850Z,636.00
2023-08-15T04:13:37.841Z,640.00
2023-08-15T04:14:37.853Z,635.00
2023-08-15T04:15:37.817Z,639.00
2023-08-15T04:16:37.936Z,634.00
2023-08-15T04:17:37.829Z,642.00
2023-08-15T04:18:37.853Z,638.00
2023-08-15T04:19:37.808Z,638.00
2023-08-15T04:20:37.866Z,638.00
2023-08-15T04:21:37.777Z,637.00
2023-08-15T04:22:37.802Z,643.00
2023-08-15T04:23:37.757Z,644.00
2023-08-15T04:24:37.765Z,642.00
2023-08-15T04:25:37.748Z,642.00
2023-08-15T04:26:37.776Z,641.00
2023-08-15T04:27:37.727Z,649.00
2023-08-15T04:28:37.773Z,644.00
2023-08-15T04:29:37.787Z,643.00
2023-08-15T04:30:37.760Z,643.00
2023-08-15T04:31:37.764Z,642.00
2023-08-15T04:32:37.775Z,642.00
2023-08-15T04:33:37.745Z,644.00
2023-08-15T04:34:37.700Z,642.00
2023-08-15T04:35:37.675Z,649.00
2023-08-15T04:36:37.685Z,643.00
2023-08-15T04:37:37.719Z,638.00
2023-08-15T04:38:37.726Z,641.00
2023-08-15T04:39:37.665Z,638.00
2023-08-15T04:40:37.690Z,642.00
2023-08-15T04:41:37.631Z,643.00
2023-08-15T04:42:37.646Z,643.00
2023-08-15T04:43:37.646Z,643.00
2023-08-15T04:44:37.629Z,638.00
2023-08-15T04:45:37.621Z,638.00
2023-08-15T04:46:37.626Z,634.00
2023-08-15T04:47:37.698Z,640.00
2023-08-15T04:48:37.604Z,636.00
2023-08-15T04:49:37.593Z,635.00
2023-08-15T04:50:37.600Z,637.00
2023-08-15T04:51:37.669Z,632.00
2023-08-15T04:52:37.581Z,638.00
2023-08-15T04:53:37.605Z,640.00
2023-08-15T04:54:37.568Z,639.00
2023-08-15T04:55:37.563Z,639.00
2023-08-15T04:56:37.829Z,638.00
2023-08-15T04:57:37.564Z,635.00
2023-08-15T04:58:37.538Z,642.00
2023-08-15T04:59:37.543Z,641.00
2023-08-15T05:00:37.539Z,642.00
2023-08-15T05:01:37.646Z,642.00
2023-08-15T05:02:37.544Z,640.00
2023-08-15T05:03:37.502Z,641.00
2023-08-15T05:04:37.513Z,646.00
2023-08-15T05:05:37.572Z,642.00
2023-08-15T05:06:37.509Z,650.00
2023-08-15T05:07:37.529Z,648.00
2023-08-15T05:08:37.473Z,647.00
2023-08-15T05:09:37.528Z,644.00
2023-08-15T05:10:37.485Z,650.00
2023-08-15T05:11:37.493Z,646.00
2023-08-15T05:12:37.507Z,645.00
2023-08-15T05:13:37.496Z,647.00
2023-08-15T05:14:37.558Z,642.00
2023-08-15T05:15:37.550Z,647.00
2023-08-15T05:16:37.470Z,646.00
2023-08-15T05:17:37.529Z,643.00
2023-08-15T05:18:37.573Z,647.00
2023-08-15T05:19:37.613Z,645.00
2023-08-15T05:20:37.604Z,641.00
2023-08-15T05:21:37.671Z,640.00
2023-08-15T05:22:37.683Z,641.00
2023-08-15T05:23:37.731Z,640.00
2023-08-15T05:24:37.764Z,642.00
2023-08-15T05:25:37.855Z,641.00
2023-08-15T05:26:37.975Z,643.00
2023-08-15T05:27:37.948Z,649.00
2023-08-15T05:28:38.010Z,650.00
2023-08-15T05:29:38.079Z,652.00
2023-08-15T05:30:38.141Z,656.00
2023-08-15T05:31:38.273Z,666.00
2023-08-15T05:32:38.342Z,663.00
2023-08-15T05:33:38.351Z,674.00
2023-08-15T05:34:38.389Z,679.00
2023-08-15T05:35:38.459Z,680.00
2023-08-15T05:36:38.523Z,687.00
2023-08-15T05:37:38.600Z,687.00
2023-08-15T05:38:38.617Z,681.00
2023-08-15T05:39:38.661Z,673.00
2023-08-15T05:40:38.709Z,689.00
2023-08-15T05:41:38.802Z,677.00
2023-08-15T05:42:38.843Z,683.00
2023-08-15T05:43:38.898Z,681.00
2023-08-15T05:44:38.919Z,665.00
2023-08-15T05:45:38.986Z,689.00
2023-08-15T05:46:39.067Z,674.00
2023-08-15T05:47:39.109Z,690.00
2023-08-15T05:48:39.126Z,687.00
2023-08-15T05:49:39.166Z,678.00
2023-08-15T05:50:39.240Z,698.00
2023-08-15T05:51:39.254Z,710.00
2023-08-15T05:52:39.299Z,698.00
2023-08-15T05:53:39.319Z,706.00
2023-08-15T05:54:39.385Z,708.00
2023-08-15T05:55:39.428Z,699.00
2023-08-15T05:56:39.476Z,722.00
2023-08-15T05:57:39.489Z,710.00
2023-08-15T05:58:39.538Z,705.00
2023-08-15T05:59:39.573Z,720.00
2023-08-15T06:00:39.630Z,715.00
2023-08-15T06:01:39.624Z,718.00
2023-08-15T06:02:39.688Z,719.00
2023-08-15T06:03:51.908Z,729.00
2023-08-15T06:04:40.766Z,730.00
2023-08-15T06:05:39.674Z,732.00
2023-08-15T06:06:39.684Z,734.00
2023-08-15T06:07:39.673Z,740.00
2023-08-15T06:08:39.698Z,747.00
2023-08-15T06:09:39.664Z,755.00
2023-08-15T06:10:39.652Z,749.00
2023-08-15T06:11:39.652Z,748.00
2023-08-15T06:12:39.660Z,747.00
2023-08-15T06:13:39.659Z,750.00
2023-08-15T06:14:39.627Z,752.00
2023-08-15T06:15:39.614Z,755.00
2023-08-15T06:16:39.649Z,748.00
2023-08-15T06:17:39.622Z,752.00
2023-08-15T06:18:39.596Z,753.00
2023-08-15T06:19:39.607Z,749.00
2023-08-15T06:20:39.571Z,728.00
2023-08-15T06:21:39.581Z,747.00
2023-08-15T06:22:39.571Z,756.00
2023-08-15T06:23:39.592Z,749.00
2023-08-15T06:24:39.586Z,749.00
2023-08-15T06:25:39.544Z,753.00
2023-08-15T06:26:39.568Z,743.00
2023-08-15T06:27:39.615Z,747.00
2023-08-15T06:28:39.587Z,740.00
2023-08-15T06:29:39.598Z,753.00
2023-08-15T06:30:39.601Z,745.00
2023-08-15T06:31:39.587Z,741.00
2023-08-15T06:32:40.209Z,756.00
2023-08-15T06:33:39.602Z,750.00
2023-08-15T06:34:39.656Z,761.00
2023-08-15T06:35:39.628Z,756.00
2023-08-15T06:36:39.627Z,752.00
2023-08-15T06:37:39.646Z,750.00
2023-08-15T06:38:39.667Z,740.00
2023-08-15T06:39:39.628Z,744.00
2023-08-15T06:40:39.637Z,745.00
2023-08-15T06:41:39.636Z,726.00
2023-08-15T06:42:39.688Z,737.00
2023-08-15T06:43:39.643Z,738.00
2023-08-15T06:44:39.632Z,734.00
2023-08-15T06:45:39.652Z,736.00
2023-08-15T06:46:39.632Z,717.00
2023-08-15T06:47:39.660Z,734.00
2023-08-15T06:48:39.632Z,741.00
2023-08-15T06:49:39.625Z,737.00
2023-08-15T06:50:39.619Z,734.00
2023-08-15T06:51:39.622Z,720.00
2023-08-15T06:52:39.589Z,721.00
2023-08-15T06:53:39.625Z,723.00
2023-08-15T06:54:39.663Z,723.00
2023-08-15T06:55:39.692Z,720.00
2023-08-15T06:56:39.716Z,719.00
2023-08-15T06:57:39.766Z,717.00
2023-08-15T06:58:39.796Z,710.00
2023-08-15T06:59:39.930Z,726.00
2023-08-15T07:00:39.855Z,717.00
2023-08-15T07:01:39.897Z,735.00
2023-08-15T07:02:39.943Z,721.00
2023-08-15T07:03:40.059Z,724.00
2023-08-15T07:04:39.950Z,721.00
2023-08-15T07:05:40.050Z,719.00
2023-08-15T07:06:40.009Z,728.00
2023-08-15T07:07:40.025Z,738.00
2023-08-15T07:08:40.111Z,741.00
2023-08-15T07:09:40.083Z,719.00
2023-08-15T07:10:40.127Z,728.00
2023-08-15T07:11:40.153Z,733.00
2023-08-15T07:12:40.192Z,736.00
2023-08-15T07:13:40.185Z,727.00
2023-08-15T07:14:40.199Z,728.00
2023-08-15T07:15:40.225Z,732.00
2023-08-15T07:16:40.239Z,739.00
2023-08-15T07:17:40.425Z,744.00
2023-08-15T07:18:40.268Z,736.00
2023-08-15T07:19:40.246Z,746.00
2023-08-15T07:20:40.244Z,745.00
2023-08-15T07:21:40.251Z,757.00
2023-08-15T07:22:40.248Z,749.00
2023-08-15T07:23:40.255Z,756.00
2023-08-15T07:24:40.266Z,758.00
2023-08-15T07:25:40.302Z,744.00
2023-08-15T07:26:40.276Z,761.00
2023-08-15T07:27:40.291Z,758.00
2023-08-15T07:28:40.326Z,733.00
2023-08-15T07:29:40.339Z,757.00
2023-08-15T07:30:40.396Z,759.00
2023-08-15T07:31:40.353Z,750.00
2023-08-15T07:32:40.353Z,757.00
2023-08-15T07:33:40.340Z,775.00
2023-08-15T07:34:40.388Z,769.00
2023-08-15T07:35:40.383Z,773.00
2023-08-15T07:36:40.419Z,769.00
2023-08-15T07:37:40.386Z,771.00
2023-08-15T07:38:40.467Z,789.00
2023-08-15T07:39:40.392Z,788.00
2023-08-15T07:40:40.502Z,784.00
2023-08-15T07:41:40.410Z,785.00
2023-08-15T07:42:40.442Z,780.00
2023-08-15T07:43:40.437Z,788.00
2023-08-15T07:44:40.437Z,790.00
2023-08-15T07:45:40.469Z,792.00
2023-08-15T07:46:40.448Z,801.00
2023-08-15T07:47:40.477Z,795.00
2023-08-15T07:48:40.472Z,809.00
2023-08-15T07:49:40.448Z,811.00
2023-08-15T07:50:40.486Z,806.00
2023-08-15T07:51:40.485Z,796.00
2023-08-15T07:52:40.511Z,811.00
2023-08-15T07:53:40.534Z,823.00
2023-08-15T07:54:40.577Z,824.00
2023-08-15T07:55:40.564Z,811.00
2023-08-15T07:56:40.581Z,817.00
2023-08-15T07:57:40.645Z,807.00
2023-08-15T07:58:40.633Z,814.00
2023-08-15T07:59:40.708Z,798.00
2023-08-15T08:00:40.791Z,800.00
2023-08-15T08:01:40.705Z,810.00
2023-08-15T08:02:40.753Z,809.00
2023-08-15T08:03:40.718Z,813.00
2023-08-15T08:04:40.740Z,793.00
2023-08-15T08:05:40.824Z,802.00
2023-08-15T08:06:41.495Z,809.00
2023-08-15T08:07:40.798Z,807.00
2023-08-15T08:08:40.811Z,817.00
2023-08-15T08:09:40.828Z,821.00
2023-08-15T08:10:40.847Z,814.00
2023-08-15T08:11:40.933Z,795.00
2023-08-15T08:12:40.928Z,805.00
2023-08-15T08:13:41.022Z,815.00
2023-08-15T08:14:52.379Z,806.00
2023-08-15T08:15:42.012Z,808.00
2023-08-15T08:16:41.004Z,808.00
2023-08-15T08:17:41.088Z,811.00
2023-08-15T08:18:41.002Z,820.00
2023-08-15T08:19:40.978Z,814.00
2023-08-15T08:20:41.007Z,817.00
2023-08-15T08:21:41.072Z,814.00
2023-08-15T08:22:40.985Z,834.00
2023-08-15T08:23:40.999Z,798.00
2023-08-15T08:24:41.063Z,782.00
2023-08-15T08:25:41.125Z,773.00
2023-08-15T08:26:41.208Z,784.00
2023-08-15T08:27:41.219Z,775.00
2023-08-15T08:28:41.349Z,778.00
2023-08-15T08:29:41.407Z,775.00
2023-08-15T08:30:41.418Z,761.00
2023-08-15T08:31:41.531Z,781.00
2023-08-15T08:32:41.599Z,774.00
2023-08-15T08:33:41.616Z,769.00
2023-08-15T08:34:42.060Z,769.00
2023-08-15T08:35:41.690Z,774.00
2023-08-15T08:36:41.736Z,770.00
2023-08-15T08:37:41.786Z,784.00
2023-08-15T08:38:41.830Z,778.00
2023-08-15T08:39:41.926Z,769.00
2023-08-15T08:40:42.011Z,743.00
2023-08-15T08:41:41.942Z,742.00
2023-08-15T08:42:42.035Z,734.00
2023-08-15T08:43:42.024Z,730.00
2023-08-15T08:44:42.056Z,738.00
2023-08-15T08:45:42.139Z,725.00
2023-08-15T08:46:42.104Z,735.00
2023-08-15T08:47:42.308Z,736.00
2023-08-15T08:48:42.207Z,739.00
2023-08-15T08:49:42.194Z,717.00
2023-08-15T08:50:42.215Z,731.00
2023-08-15T08:51:42.237Z,712.00
2023-08-15T08:52:42.266Z,712.00
2023-08-15T08:53:42.317Z,724.00
2023-08-15T08:54:56.477Z,708.00
2023-08-15T08:55:43.308Z,709.00
2023-08-15T08:56:42.293Z,709.00
2023-08-15T08:57:42.284Z,700.00
2023-08-15T08:58:42.266Z,690.00
2023-08-15T08:59:42.268Z,695.00
2023-08-15T09:00:42.379Z,694.00
2023-08-15T09:01:42.288Z,682.00
2023-08-15T09:02:42.358Z,664.00
2023-08-15T09:03:42.301Z,665.00
2023-08-15T09:04:42.276Z,660.00
2023-08-15T09:05:42.272Z,663.00
2023-08-15T09:06:42.274Z,660.00
2023-08-15T09:07:42.228Z,657.00
2023-08-15T09:08:42.255Z,652.00
2023-08-15T09:09:42.226Z,649.00
2023-08-15T09:10:42.248Z,646.00
2023-08-15T09:11:42.215Z,647.00
2023-08-15T09:12:42.185Z,651.00
2023-08-15T09:13:42.179Z,652.00
2023-08-15T09:14:42.195Z,650.00
2023-08-15T09:15:42.201Z,651.00
2023-08-15T09:16:42.159Z,655.00
2023-08-15T09:17:42.202Z,657.00
2023-08-15T09:18:42.150Z,654.00
2023-08-15T09:19:42.124Z,655.00
2023-08-15T09:20:42.162Z,658.00
2023-08-15T09:21:42.123Z,656.00
2023-08-15T09:22:42.170Z,657.00
2023-08-15T09:23:42.114Z,656.00
2023-08-15T09:24:42.192Z,657.00
2023-08-15T09:25:42.200Z,659.00
2023-08-15T09:26:42.161Z,654.00
2023-08-15T09:27:42.151Z,654.00
2023-08-15T09:28:42.171Z,655.00
2023-08-15T09:29:42.185Z,658.00
2023-08-15T09:30:42.215Z,657.00
2023-08-15T09:31:42.258Z,655.00
2023-08-15T09:32:42.333Z,654.00
2023-08-15T09:33:42.306Z,646.00
2023-08-15T09:34:42.355Z,658.00
2023-08-15T09:35:57.292Z,657.00
2023-08-15T09:36:43.351Z,657.00
2023-08-15T09:37:42.338Z,652.00
2023-08-15T09:38:42.367Z,647.00
2023-08-15T09:39:42.328Z,644.00
2023-08-15T09:40:42.350Z,647.00
2023-08-15T09:41:42.345Z,631.00
2023-08-15T09:42:42.322Z,636.00
2023-08-15T09:43:42.280Z,629.00
2023-08-15T09:44:42.309Z,626.00
2023-08-15T09:45:42.314Z,615.00
2023-08-15T09:46:42.375Z,615.00
2023-08-15T09:47:42.384Z,615.00
2023-08-15T09:48:42.330Z,610.00
2023-08-15T09:49:42.358Z,611.00
2023-08-15T09:50:42.453Z,609.00
2023-08-15T09:51:42.467Z,608.00
2023-08-15T09:52:42.468Z,610.00
2023-08-15T09:53:42.510Z,612.00
2023-08-15T09:54:42.546Z,612.00
2023-08-15T09:55:42.587Z,609.00
2023-08-15T09:56:43.007Z,612.00
2023-08-15T09:57:42.640Z,616.00
2023-08-15T09:58:42.719Z,612.00
2023-08-15T09:59:42.758Z,617.00
2023-08-15T10:00:42.847Z,623.00
2023-08-15T10:01:42.902Z,623.00
2023-08-15T10:02:42.988Z,629.00
2023-08-15T10:03:43.016Z,625.00
2023-08-15T10:04:43.053Z,629.00
2023-08-15T10:05:43.119Z,632.00
2023-08-15T10:06:43.192Z,626.00
2023-08-15T10:07:43.135Z,620.00
2023-08-15T10:08:43.182Z,623.00
2023-08-15T10:09:43.247Z,620.00
2023-08-15T10:10:43.215Z,615.00
2023-08-15T10:11:43.229Z,625.00
2023-08-15T10:12:43.265Z,618.00
2023-08-15T10:13:43.220Z,630.00
2023-08-15T10:14:43.261Z,626.00
2023-08-15T10:15:43.287Z,623.00
2023-08-15T10:16:43.309Z,620.00
2023-08-15T10:17:43.351Z,624.00
2023-08-15T10:18:43.299Z,625.00
2023-08-15T10:19:43.249Z,628.00
2023-08-15T10:20:43.326Z,626.00
2023-08-15T10:21:43.313Z,630.00
2023-08-15T10:22:43.290Z,628.00
2023-08-15T10:23:43.315Z,627.00
2023-08-15T10:24:43.321Z,621.00
2023-08-15T10:25:43.360Z,631.00
2023-08-15T10:26:43.321Z,627.00
2023-08-15T10:27:43.330Z,626.00
2023-08-15T10:28:43.325Z,627.00
2023-08-15T10:29:43.318Z,625.00
2023-08-15T10:30:43.592Z,626.00
2023-08-15T10:31:43.382Z,631.00
2023-08-15T10:32:43.331Z,616.00
2023-08-15T10:33:43.340Z,616.00
2023-08-15T10:34:43.314Z,622.00
2023-08-15T10:35:43.351Z,622.00
2023-08-15T10:36:43.298Z,619.00
2023-08-15T10:37:43.303Z,616.00
2023-08-15T10:38:43.278Z,621.00
2023-08-15T10:39:43.280Z,621.00
2023-08-15T10:40:43.281Z,629.00
2023-08-15T10:41:43.330Z,631.00
2023-08-15T10:42:43.268Z,630.00
2023-08-15T10:43:43.292Z,626.00
2023-08-15T10:44:43.254Z,623.00
2023-08-15T10:45:43.252Z,621.00
2023-08-15T10:46:43.411Z,620.00
2023-08-15T10:47:43.319Z,620.00
2023-08-15T10:48:55.757Z,617.00
2023-08-15T10:49:44.234Z,618.00
2023-08-15T10:50:43.253Z,618.00
2023-08-15T10:51:43.222Z,620.00
2023-08-15T10:52:43.200Z,619.00
2023-08-15T10:53:43.197Z,619.00
2023-08-15T10:54:43.191Z,617.00
2023-08-15T10:55:43.173Z,618.00
2023-08-15T10:56:43.167Z,617.00
2023-08-15T10:57:43.170Z,619.00
2023-08-15T10:58:43.135Z,610.00
2023-08-15T10:59:43.207Z,614.00
2023-08-15T11:00:43.144Z,610.00
2023-08-15T11:01:43.209Z,618.00
2023-08-15T11:02:44.289Z,618.00
2023-08-15T11:03:43.175Z,619.00
2023-08-15T11:04:43.220Z,619.00
2023-08-15T11:05:43.110Z,616.00
2023-08-15T11:06:43.174Z,611.00
2023-08-15T11:07:43.118Z,605.00
2023-08-15T11:08:43.111Z,604.00
2023-08-15T11:09:43.073Z,605.00
2023-08-15T11:10:43.091Z,613.00
2023-08-15T11:11:43.090Z,613.00
2023-08-15T11:12:43.128Z,615.00
2023-08-15T11:13:43.056Z,612.00
2023-08-15T11:14:43.059Z,602.00
2023-08-15T11:15:43.044Z,611.00
2023-08-15T11:16:43.075Z,612.00
2023-08-15T11:17:43.066Z,612.00
2023-08-15T11:18:43.095Z,612.00
2023-08-15T11:19:43.042Z,612.00
2023-08-15T11:20:43.049Z,623.00
2023-08-15T11:21:43.041Z,620.00
2023-08-15T11:22:43.020Z,631.00
2023-08-15T11:23:42.989Z,628.00
2023-08-15T11:24:43.016Z,620.00
2023-08-15T11:25:43.011Z,611.00
2023-08-15T11:26:43.005Z,607.00
2023-08-15T11:27:43.010Z,616.00
2023-08-15T11:28:42.957Z,612.00
2023-08-15T11:29:42.954Z,617.00
2023-08-15T11:30:42.946Z,614.00
2023-08-15T11:31:43.180Z,619.00
2023-08-15T11:32:42.986Z,618.00
2023-08-15T11:33:43.025Z,609.00
2023-08-15T11:34:42.912Z,615.00
2023-08-15T11:35:42.935Z,614.00
2023-08-15T11:36:42.939Z,612.00
2023-08-15T11:37:42.977Z,618.00
2023-08-15T11:38:42.972Z,611.00
2023-08-15T11:39:43.006Z,613.00
2023-08-15T11:40:43.025Z,617.00
2023-08-15T11:41:43.081Z,624.00
2023-08-15T11:42:43.050Z,622.00
2023-08-15T11:43:43.093Z,628.00
2023-08-15T11:44:43.051Z,611.00
2023-08-15T11:45:43.051Z,614.00
2023-08-15T11:46:54.088Z,611.00
2023-08-15T11:47:44.057Z,612.00
2023-08-15T11:48:43.059Z,614.00
2023-08-15T11:49:46.785Z,613.00
2023-08-15T11:50:44.909Z,612.00
2023-08-15T11:51:43.032Z,614.00
2023-08-15T11:52:43.002Z,613.00
2023-08-15T11:53:42.997Z,610.00
2023-08-15T11:54:42.986Z,610.00
2023-08-15T11:55:42.987Z,619.00
2023-08-15T11:56:42.977Z,619.00
2023-08-15T11:57:42.995Z,610.00
2023-08-15T11:58:44.209Z,609.00
2023-08-15T11:59:42.976Z,604.00
2023-08-15T12:00:42.944Z,609.00
2023-08-15T12:01:43.061Z,612.00
2023-08-15T12:02:43.010Z,613.00
2023-08-15T12:03:42.976Z,611.00
2023-08-15T12:04:42.922Z,612.00
2023-08-15T12:05:42.923Z,610.00
2023-08-15T12:06:42.905Z,609.00
2023-08-15T12:07:43.035Z,611.00
2023-08-15T12:08:42.990Z,611.00
2023-08-15T12:09:42.907Z,615.00
2023-08-15T12:10:42.904Z,614.00
2023-08-15T12:11:42.915Z,621.00
2023-08-15T12:12:42.873Z,614.00
2023-08-15T12:13:42.867Z,605.00
2023-08-15T12:14:51.017Z,599.00
2023-08-15T12:15:43.935Z,600.00
2023-08-15T12:16:42.873Z,601.00
2023-08-15T12:17:42.902Z,604.00
2023-08-15T12:18:42.907Z,608.00
2023-08-15T12:19:42.893Z,611.00
2023-08-15T12:20:42.839Z,614.00
2023-08-15T12:21:42.989Z,614.00
2023-08-15T12:22:42.842Z,606.00
2023-08-15T12:23:42.866Z,608.00
2023-08-15T12:24:42.834Z,623.00
2023-08-15T12:25:42.838Z,618.00
2023-08-15T12:26:42.841Z,608.00
2023-08-15T12:27:42.839Z,612.00
2023-08-15T12:28:42.806Z,607.00